Time;durP1;ratioP1;P1;durP2;ratioP2;P2;SDS_P1;SDS_P2;PMS_P1;PMS_P2;Temp;Humidity;BMP_temperature;BMP_pressure;BME280_temperature;BME280_humidity;BME280_pressure;Samples;Min_cycle;Max_cycle;Signal;HPM_P1;HPM_P2
2021/03/18 00:00:38;;;;;;;6.00;4.40;;;3.20;94.20;;;;;;4998800;28;20285;-90
2021/03/18 00:03:04;;;;;;;5.97;4.05;;;3.20;94.00;;;;;;4997023;28;20039;-90
2021/03/18 00:05:30;;;;;;;5.47;3.53;;;3.20;94.10;;;;;;4997054;28;20068;-91
2021/03/18 00:07:57;;;;;;;7.93;4.90;;;3.20;94.10;;;;;;4990835;28;20404;-91
2021/03/18 00:10:22;;;;;;;5.93;4.63;;;3.20;94.20;;;;;;4979814;28;20066;-91
2021/03/18 00:12:48;;;;;;;6.30;4.38;;;3.10;94.30;;;;;;4980110;28;20147;-90
2021/03/18 00:15:14;;;;;;;6.55;4.22;;;3.10;94.40;;;;;;4997500;28;20187;-89
2021/03/18 00:17:40;;;;;;;6.55;4.47;;;3.10;94.40;;;;;;4996982;28;20038;-91
2021/03/18 00:20:11;;;;;;;12.27;4.30;;;3.10;94.40;;;;;;4997216;28;20064;-90
2021/03/18 00:22:40;;;;;;;7.18;4.55;;;3.10;94.40;;;;;;4979608;28;20034;-90
2021/03/18 00:25:09;;;;;;;7.53;5.38;;;3.10;94.30;;;;;;4963173;28;20137;-90
2021/03/18 00:27:35;;;;;;;6.88;5.13;;;3.10;94.30;;;;;;4966321;28;20359;-88
2021/03/18 00:30:02;;;;;;;7.53;4.82;;;3.10;94.20;;;;;;4962518;28;20039;-89
2021/03/18 00:32:27;;;;;;;5.57;4.20;;;3.10;94.20;;;;;;4963144;28;20038;-88
2021/03/18 00:34:53;;;;;;;7.80;5.20;;;3.10;94.30;;;;;;4965102;28;20043;-89
2021/03/18 00:37:18;;;;;;;6.20;5.13;;;3.10;94.20;;;;;;5050117;28;20118;-89
2021/03/18 00:39:44;;;;;;;7.53;5.60;;;3.10;94.30;;;;;;5054826;28;20039;-88
2021/03/18 00:42:10;;;;;;;6.93;5.00;;;3.10;94.20;;;;;;4964063;28;20042;-89
2021/03/18 00:44:36;;;;;;;8.25;5.13;;;3.00;94.30;;;;;;4977984;28;20058;-89
2021/03/18 00:47:01;;;;;;;6.65;4.22;;;3.00;94.50;;;;;;4975211;28;20046;-89
2021/03/18 00:49:27;;;;;;;7.18;5.10;;;3.00;94.30;;;;;;4973045;28;20149;-89
2021/03/18 00:51:52;;;;;;;8.55;4.90;;;3.00;94.30;;;;;;4976302;28;20039;-89
2021/03/18 00:54:18;;;;;;;7.00;5.03;;;3.00;94.20;;;;;;5013270;28;20375;-89
2021/03/18 00:56:43;;;;;;;9.05;5.00;;;3.00;94.10;;;;;;4972574;28;20045;-89
2021/03/18 00:59:09;;;;;;;8.20;4.82;;;3.00;94.10;;;;;;5055434;28;20038;-89
2021/03/18 01:01:35;;;;;;;6.10;4.57;;;2.90;94.00;;;;;;5004736;28;20143;-90
2021/03/18 01:04:00;;;;;;;7.22;5.00;;;2.90;93.90;;;;;;5010285;28;20053;-90
2021/03/18 01:06:28;;;;;;;6.68;4.40;;;2.90;93.90;;;;;;5000334;28;20039;-90
2021/03/18 01:08:55;;;;;;;8.10;5.68;;;2.80;93.90;;;;;;4963526;28;20039;-89
2021/03/18 01:11:27;;;;;;;11.13;5.40;;;2.90;93.90;;;;;;4960961;28;20131;-89
2021/03/18 01:13:56;;;;;;;8.32;5.30;;;2.80;93.90;;;;;;5012703;28;20041;-90
2021/03/18 01:16:25;;;;;;;7.13;5.63;;;2.70;94.00;;;;;;4973856;28;20049;-88
2021/03/18 01:18:56;;;;;;;7.28;4.70;;;2.70;94.10;;;;;;4974864;28;20488;-90
2021/03/18 01:21:27;;;;;;;5.63;4.50;;;2.70;94.10;;;;;;4962594;28;20031;-89
2021/03/18 01:23:52;;;;;;;7.25;5.03;;;2.70;94.10;;;;;;4974197;28;20341;-90
2021/03/18 01:26:18;;;;;;;8.15;5.60;;;2.60;94.20;;;;;;4972028;28;20114;-90
2021/03/18 01:28:43;;;;;;;9.20;5.72;;;2.60;94.30;;;;;;4961242;28;20039;-89
2021/03/18 01:31:10;;;;;;;7.38;5.32;;;2.50;94.30;;;;;;4975002;28;20300;-90
2021/03/18 01:33:38;;;;;;;8.65;5.60;;;2.50;94.20;;;;;;4970246;28;20046;-89
2021/03/18 01:36:07;;;;;;;7.43;5.82;;;2.50;94.20;;;;;;4989466;28;20061;-90
2021/03/18 01:38:33;;;;;;;7.63;5.30;;;2.50;94.20;;;;;;4971408;28;20045;-89
2021/03/18 01:40:59;;;;;;;8.70;5.57;;;2.50;94.20;;;;;;4995311;28;20052;-89
2021/03/18 01:43:28;;;;;;;9.55;6.47;;;2.50;94.20;;;;;;5011479;28;20038;-90
2021/03/18 01:45:54;;;;;;;12.77;5.32;;;2.50;94.10;;;;;;4966111;28;20047;-90
2021/03/18 01:48:20;;;;;;;9.43;6.57;;;2.50;94.00;;;;;;4986444;28;20038;-88
2021/03/18 01:50:46;;;;;;;8.13;6.20;;;2.40;93.90;;;;;;4952503;28;20489;-89
2021/03/18 01:53:13;;;;;;;8.35;5.57;;;2.40;93.90;;;;;;4977616;28;20066;-91
2021/03/18 01:55:43;;;;;;;7.85;5.32;;;2.40;93.80;;;;;;4993081;28;20042;-89
2021/03/18 01:58:11;;;;;;;7.00;5.30;;;2.30;93.80;;;;;;4980675;28;20054;-89
2021/03/18 02:00:39;;;;;;;9.60;6.05;;;2.30;93.80;;;;;;5051916;28;20034;-89
2021/03/18 02:03:05;;;;;;;7.97;5.40;;;2.20;93.80;;;;;;4971344;28;20039;-90
2021/03/18 02:05:31;;;;;;;11.98;6.43;;;2.20;93.90;;;;;;4982920;28;21559;-90
2021/03/18 02:07:57;;;;;;;10.38;6.07;;;2.20;94.00;;;;;;4974390;28;20067;-90
2021/03/18 02:10:29;;;;;;;9.57;6.03;;;2.10;94.20;;;;;;4959006;28;20084;-89
2021/03/18 02:12:55;;;;;;;11.05;6.97;;;2.10;94.40;;;;;;4995731;28;20413;-90
2021/03/18 02:15:24;;;;;;;8.38;5.88;;;2.00;94.50;;;;;;4985162;28;20055;-87
2021/03/18 02:17:56;;;;;;;9.50;6.43;;;2.10;94.60;;;;;;4975644;28;20289;-89
2021/03/18 02:20:40;;;;;;;10.02;5.82;;;2.10;94.60;;;;;;5057554;28;20086;-90
2021/03/18 02:23:18;;;;;;;9.73;6.78;;;2.10;94.60;;;;;;5040309;28;20109;-90
2021/03/18 02:26:02;;;;;;;9.38;5.90;;;2.10;94.60;;;;;;5043840;28;20053;-90
2021/03/18 02:28:43;;;;;;;8.50;5.93;;;2.10;94.60;;;;;;4985171;28;20049;-89
2021/03/18 02:31:11;;;;;;;10.57;6.88;;;2.00;94.60;;;;;;4963334;28;20043;-89
2021/03/18 02:34:13;;;;;;;12.80;6.72;;;2.00;94.70;;;;;;4967918;28;20042;-89
2021/03/18 02:36:53;;;;;;;9.65;6.13;;;2.00;94.70;;;;;;4960930;28;20050;-89
2021/03/18 02:39:34;;;;;;;13.27;7.53;;;1.90;94.80;;;;;;4980877;28;20035;-88
2021/03/18 02:42:04;;;;;;;13.23;7.13;;;2.00;94.80;;;;;;4998207;28;20026;-90
2021/03/18 02:44:32;;;;;;;15.63;7.70;;;1.90;94.80;;;;;;5003365;28;20039;-89
2021/03/18 02:47:07;;;;;;;9.88;6.45;;;1.90;94.80;;;;;;4992196;28;20391;-90
2021/03/18 02:49:38;;;;;;;9.55;7.18;;;1.90;94.80;;;;;;4968903;28;20055;-90
2021/03/18 02:52:05;;;;;;;10.27;6.75;;;1.90;94.70;;;;;;4979454;28;20042;-89
2021/03/18 02:54:32;;;;;;;8.77;6.30;;;2.00;94.70;;;;;;4990660;28;20050;-90
2021/03/18 02:57:02;;;;;;;9.38;6.93;;;1.90;94.70;;;;;;4973460;28;20035;-90
2021/03/18 02:59:33;;;;;;;11.35;7.63;;;1.90;94.70;;;;;;5012794;28;20302;-90
2021/03/18 03:02:02;;;;;;;8.85;6.40;;;1.90;94.70;;;;;;4972959;28;20200;-88
2021/03/18 03:04:30;;;;;;;12.45;8.15;;;1.90;94.70;;;;;;4962179;28;20184;-90
2021/03/18 03:06:56;;;;;;;10.88;7.53;;;1.90;94.70;;;;;;4963568;28;20292;-90
2021/03/18 03:09:23;;;;;;;15.60;7.88;;;1.90;94.80;;;;;;4978556;28;20301;-89
2021/03/18 03:11:50;;;;;;;13.45;7.95;;;1.80;94.70;;;;;;4961866;28;20059;-88
2021/03/18 03:14:18;;;;;;;13.98;7.60;;;1.90;94.80;;;;;;4984651;28;20141;-89
2021/03/18 03:16:44;;;;;;;11.02;6.90;;;1.80;94.70;;;;;;4964146;28;20045;-88
2021/03/18 03:19:11;;;;;;;12.50;7.63;;;1.90;94.80;;;;;;4978293;28;20276;-90
2021/03/18 03:21:36;;;;;;;12.15;6.90;;;1.80;94.70;;;;;;4961686;28;20045;-90
2021/03/18 03:24:06;;;;;;;12.77;8.05;;;1.80;94.70;;;;;;4975711;28;20117;-89
2021/03/18 03:26:33;;;;;;;15.50;8.13;;;1.80;94.70;;;;;;4989068;28;20045;-88
2021/03/18 03:29:00;;;;;;;15.40;8.63;;;1.80;94.70;;;;;;4993872;28;20078;-89
2021/03/18 03:31:25;;;;;;;11.43;8.00;;;1.80;94.70;;;;;;5028239;28;20064;-90
2021/03/18 03:33:51;;;;;;;13.00;7.55;;;1.80;94.70;;;;;;4994608;28;20085;-89
2021/03/18 03:36:19;;;;;;;16.77;8.75;;;1.80;94.70;;;;;;5004225;28;20043;-90
2021/03/18 03:38:45;;;;;;;13.43;8.38;;;1.70;94.80;;;;;;5004627;28;20460;-89
2021/03/18 03:41:10;;;;;;;12.88;8.05;;;1.70;94.80;;;;;;5063150;28;20042;-90
2021/03/18 03:43:36;;;;;;;15.98;8.60;;;1.80;94.70;;;;;;4980268;28;20111;-89
2021/03/18 03:46:02;;;;;;;11.73;7.70;;;1.80;94.70;;;;;;4996138;28;20117;-90
2021/03/18 03:48:30;;;;;;;14.60;7.13;;;1.70;94.70;;;;;;4966884;28;20679;-88
2021/03/18 03:50:57;;;;;;;15.48;8.25;;;1.70;94.90;;;;;;4978613;28;20042;-90
2021/03/18 03:53:44;;;;;;;14.48;8.65;;;1.70;94.70;;;;;;4993585;28;20464;-89
2021/03/18 03:56:31;;;;;;;14.93;8.80;;;1.70;94.70;;;;;;4961955;28;20058;-88
2021/03/18 03:59:02;;;;;;;14.02;8.63;;;1.70;94.80;;;;;;4979951;28;20046;-89
2021/03/18 04:01:46;;;;;;;13.07;8.65;;;1.60;94.80;;;;;;4971404;28;20030;-88
2021/03/18 04:04:26;;;;;;;12.18;8.50;;;1.60;94.80;;;;;;4963946;28;20076;-88
2021/03/18 04:07:09;;;;;;;15.20;9.32;;;1.60;94.80;;;;;;4996713;28;20301;-86
2021/03/18 04:09:36;;;;;;;12.93;8.07;;;1.60;94.70;;;;;;5020326;28;20325;-89
2021/03/18 04:12:04;;;;;;;15.88;9.65;;;1.60;94.70;;;;;;5039638;28;20047;-90
2021/03/18 04:14:33;;;;;;;15.07;9.40;;;1.60;94.70;;;;;;4989379;28;20039;-88
2021/03/18 04:17:05;;;;;;;11.15;8.05;;;1.60;94.70;;;;;;4979469;28;20034;-89
2021/03/18 04:19:31;;;;;;;14.77;8.50;;;1.70;94.70;;;;;;4958184;29;20122;-90
2021/03/18 04:21:57;;;;;;;16.15;8.10;;;1.60;94.60;;;;;;4997950;28;20081;-89
2021/03/18 04:24:25;;;;;;;15.20;7.97;;;1.70;94.60;;;;;;4979223;28;20030;-89
2021/03/18 04:26:52;;;;;;;13.00;8.60;;;1.70;94.50;;;;;;4974726;28;20270;-90
2021/03/18 04:29:18;;;;;;;14.80;8.48;;;1.70;94.50;;;;;;4977553;28;20453;-90
2021/03/18 04:31:45;;;;;;;12.70;8.10;;;1.60;94.50;;;;;;4974423;28;20046;-90
2021/03/18 04:34:12;;;;;;;12.55;8.05;;;1.60;94.60;;;;;;4977323;28;20043;-89
2021/03/18 04:36:38;;;;;;;15.73;9.27;;;1.70;94.70;;;;;;4978955;28;20427;-89
2021/03/18 04:39:06;;;;;;;16.90;10.20;;;1.70;94.70;;;;;;4993188;28;20054;-89
2021/03/18 04:41:32;;;;;;;14.40;9.10;;;1.70;94.80;;;;;;4999886;28;20067;-89
2021/03/18 04:43:58;;;;;;;15.52;10.38;;;1.70;94.80;;;;;;4995917;28;20035;-89
2021/03/18 04:46:25;;;;;;;16.80;9.27;;;1.70;94.70;;;;;;4985870;28;20458;-90
2021/03/18 04:48:53;;;;;;;14.70;8.73;;;1.70;94.70;;;;;;5061158;28;20153;-90
2021/03/18 04:51:19;;;;;;;21.77;9.90;;;1.70;94.60;;;;;;4978058;28;20100;-90
2021/03/18 04:53:45;;;;;;;15.25;9.15;;;1.70;94.60;;;;;;4981776;28;20046;-90
2021/03/18 04:56:11;;;;;;;16.05;9.65;;;1.80;94.60;;;;;;4993353;28;20130;-90
2021/03/18 04:58:39;;;;;;;19.77;9.48;;;1.80;94.60;;;;;;4942648;28;20042;-89
2021/03/18 05:01:05;;;;;;;14.05;9.75;;;1.80;94.60;;;;;;4960706;28;20045;-91
2021/03/18 05:03:33;;;;;;;14.02;9.55;;;1.80;94.60;;;;;;4972048;28;20043;-90
2021/03/18 05:06:00;;;;;;;14.20;9.30;;;1.80;94.60;;;;;;4979563;28;20461;-91
2021/03/18 05:08:29;;;;;;;18.42;9.35;;;1.80;94.60;;;;;;4960952;28;20042;-88
2021/03/18 05:10:55;;;;;;;14.90;9.07;;;1.80;94.60;;;;;;5059071;28;20340;-90
2021/03/18 05:13:24;;;;;;;15.80;8.90;;;1.90;94.60;;;;;;5006402;28;20577;-89
2021/03/18 05:15:51;;;;;;;19.10;10.95;;;1.90;94.60;;;;;;4970932;28;20038;-89
2021/03/18 05:18:18;;;;;;;14.05;9.95;;;1.90;94.70;;;;;;4965006;28;20070;-89
2021/03/18 05:20:45;;;;;;;17.05;10.25;;;2.00;94.70;;;;;;5063662;28;20034;-89
2021/03/18 05:23:12;;;;;;;15.48;9.73;;;2.00;94.80;;;;;;4978687;28;20129;-89
2021/03/18 05:25:38;;;;;;;17.42;11.45;;;2.00;94.90;;;;;;4976471;28;20046;-88
2021/03/18 05:28:04;;;;;;;17.65;12.13;;;2.00;94.90;;;;;;4963739;28;20100;-88
2021/03/18 05:30:32;;;;;;;19.30;11.32;;;2.10;94.90;;;;;;4966684;28;20046;-88
2021/03/18 05:33:00;;;;;;;18.65;11.80;;;2.10;95.00;;;;;;5020897;28;20378;-88
2021/03/18 05:35:26;;;;;;;16.30;10.82;;;2.10;95.10;;;;;;5058256;28;20380;-88
2021/03/18 05:37:52;;;;;;;21.60;11.55;;;2.10;95.10;;;;;;4980287;28;20125;-89
2021/03/18 05:40:18;;;;;;;18.77;11.35;;;2.20;95.10;;;;;;4958063;28;20039;-88
2021/03/18 05:42:44;;;;;;;17.55;11.20;;;2.30;95.10;;;;;;4978089;28;20046;-88
2021/03/18 05:45:12;;;;;;;22.42;10.98;;;2.30;95.10;;;;;;5015870;28;20133;-88
2021/03/18 05:47:39;;;;;;;14.75;10.35;;;2.40;95.10;;;;;;4964908;28;20035;-89
2021/03/18 05:50:07;;;;;;;19.58;12.02;;;2.40;95.10;;;;;;4981378;28;20069;-87
2021/03/18 05:52:34;;;;;;;18.52;11.40;;;2.40;95.00;;;;;;4968929;28;20134;-87
2021/03/18 05:55:00;;;;;;;21.70;11.60;;;2.50;94.90;;;;;;4974544;28;20482;-88
2021/03/18 05:57:26;;;;;;;16.98;10.52;;;2.50;94.80;;;;;;4970483;28;20034;-88
2021/03/18 05:59:53;;;;;;;22.38;11.52;;;2.50;94.80;;;;;;4970020;28;20095;-88
2021/03/18 06:02:19;;;;;;;20.40;11.98;;;2.50;94.80;;;;;;4976521;28;20043;-88
2021/03/18 06:04:45;;;;;;;20.20;11.65;;;2.50;94.80;;;;;;4972687;28;20050;-88
2021/03/18 06:07:12;;;;;;;18.38;11.80;;;2.50;94.60;;;;;;4956014;28;20035;-89
2021/03/18 06:09:37;;;;;;;18.33;11.10;;;2.50;94.60;;;;;;4963346;28;20054;-89
2021/03/18 06:12:04;;;;;;;19.27;11.45;;;2.50;94.60;;;;;;4987347;28;20115;-89
2021/03/18 06:14:30;;;;;;;18.35;11.20;;;2.50;94.60;;;;;;4963630;28;20051;-89
2021/03/18 06:16:57;;;;;;;16.42;11.05;;;2.60;94.70;;;;;;4977279;28;20165;-86
2021/03/18 06:19:22;;;;;;;16.67;10.10;;;2.70;94.50;;;;;;4993581;28;20050;-87
2021/03/18 06:21:53;;;;;;;14.73;10.80;;;2.70;94.40;;;;;;4964758;28;20038;-88
2021/03/18 06:24:27;;;;;;;16.73;9.98;;;2.70;94.50;;;;;;4978686;28;20046;-88
2021/03/18 06:26:54;;;;;;;14.73;10.10;;;2.80;94.60;;;;;;4994795;28;20060;-87
2021/03/18 06:29:34;;;;;;;15.77;10.18;;;2.80;94.60;;;;;;4981390;28;20041;-87
2021/03/18 06:32:14;;;;;;;20.15;11.52;;;2.90;94.60;;;;;;4979230;28;20121;-88
2021/03/18 06:34:48;;;;;;;15.18;11.75;;;3.00;94.50;;;;;;4976940;28;20043;-87
2021/03/18 06:37:42;;;;;;;21.60;10.77;;;3.10;94.00;;;;;;4997748;28;20045;-88
2021/03/18 06:40:13;;;;;;;16.27;9.43;;;3.10;94.10;;;;;;4974868;28;20042;-88
2021/03/18 06:43:00;;;;;;;17.42;11.00;;;3.20;94.20;;;;;;4968936;28;20123;-88
2021/03/18 06:45:34;;;;;;;17.52;10.88;;;3.30;94.20;;;;;;4977556;28;20746;-88
2021/03/18 06:48:08;;;;;;;17.92;10.45;;;3.30;93.80;;;;;;4966336;28;20104;-87
2021/03/18 06:50:43;;;;;;;15.20;11.05;;;3.30;93.60;;;;;;5009716;28;20050;-89
2021/03/18 06:53:26;;;;;;;15.45;10.45;;;3.40;93.50;;;;;;4993584;28;20057;-88
2021/03/18 06:55:52;;;;;;;16.75;10.43;;;3.50;93.50;;;;;;4978018;28;20046;-89
2021/03/18 06:58:26;;;;;;;24.13;11.85;;;3.50;93.40;;;;;;4978038;28;20038;-88
2021/03/18 07:00:56;;;;;;;17.10;10.18;;;3.60;93.40;;;;;;4985013;28;20153;-88
2021/03/18 07:03:33;;;;;;;17.08;10.77;;;3.60;93.50;;;;;;4980277;28;20038;-88
2021/03/18 07:05:59;;;;;;;17.63;10.07;;;3.80;93.10;;;;;;4987407;28;20422;-88
2021/03/18 07:08:34;;;;;;;14.25;10.10;;;3.80;93.00;;;;;;4976665;28;20069;-89
2021/03/18 07:11:13;;;;;;;18.50;11.57;;;3.80;92.90;;;;;;4975678;28;20039;-87
2021/03/18 07:13:42;;;;;;;22.23;10.70;;;3.90;92.90;;;;;;4976401;28;20435;-88
2021/03/18 07:16:09;;;;;;;18.73;12.00;;;4.00;92.60;;;;;;4958974;28;20058;-87
2021/03/18 07:18:36;;;;;;;23.50;10.85;;;4.00;92.50;;;;;;4959340;28;20054;-89
2021/03/18 07:21:12;;;;;;;20.55;12.10;;;4.00;92.60;;;;;;5006329;28;20180;-87
2021/03/18 07:23:39;;;;;;;15.63;11.23;;;4.00;92.70;;;;;;5017842;28;20050;-87
2021/03/18 07:26:12;;;;;;;16.45;10.82;;;4.10;92.70;;;;;;4988159;28;20050;-89
2021/03/18 07:28:38;;;;;;;16.13;12.13;;;4.20;92.50;;;;;;4984710;28;20049;-89
2021/03/18 07:31:04;;;;;;;17.73;11.02;;;4.20;92.20;;;;;;4979529;28;20042;-87
2021/03/18 07:33:32;;;;;;;16.30;10.88;;;4.30;92.10;;;;;;4974793;28;20141;-89
2021/03/18 07:36:02;;;;;;;16.30;11.93;;;4.30;92.00;;;;;;4994825;28;20121;-88
2021/03/18 07:38:29;;;;;;;16.83;10.82;;;4.30;92.30;;;;;;4971143;28;20069;-90
2021/03/18 07:40:56;;;;;;;16.88;10.95;;;4.40;91.80;;;;;;4973190;28;20046;-88
2021/03/18 07:43:22;;;;;;;15.40;11.30;;;4.40;91.80;;;;;;4961184;28;20145;-88
2021/03/18 07:45:49;;;;;;;19.95;11.35;;;4.40;91.90;;;;;;4941829;28;20184;-89
2021/03/18 07:48:19;;;;;;;15.15;10.35;;;4.40;92.40;;;;;;4947228;28;20074;-89
2021/03/18 07:50:45;;;;;;;14.85;11.13;;;4.50;92.30;;;;;;4957030;28;20090;-89
2021/03/18 07:53:15;;;;;;;15.98;11.15;;;4.60;92.10;;;;;;5044891;28;20656;-89
2021/03/18 07:55:41;;;;;;;15.77;10.88;;;4.70;91.70;;;;;;4967791;28;20290;-88
2021/03/18 07:58:07;;;;;;;15.90;10.85;;;4.80;91.50;;;;;;4960824;28;20047;-88
2021/03/18 08:00:34;;;;;;;15.48;10.73;;;4.90;91.60;;;;;;4962888;28;20066;-89
2021/03/18 08:03:20;;;;;;;18.20;12.35;;;5.00;91.30;;;;;;4975266;28;20092;-87
2021/03/18 08:05:46;;;;;;;13.38;10.32;;;5.10;91.20;;;;;;4974769;28;20049;-88
2021/03/18 08:08:31;;;;;;;16.50;9.88;;;5.30;90.80;;;;;;4958845;28;20046;-87
2021/03/18 08:11:04;;;;;;;12.25;8.70;;;5.40;90.30;;;;;;5043918;28;20050;-88
2021/03/18 08:13:35;;;;;;;14.48;9.50;;;5.50;90.20;;;;;;4977897;28;20050;-90
2021/03/18 08:16:01;;;;;;;13.43;9.05;;;5.50;90.10;;;;;;4977106;28;20106;-88
2021/03/18 08:18:26;;;;;;;11.88;9.15;;;5.50;89.90;;;;;;4977735;28;20411;-87
2021/03/18 08:20:52;;;;;;;17.05;10.00;;;5.60;90.00;;;;;;4977793;28;20303;-88
2021/03/18 08:23:24;;;;;;;16.42;10.27;;;5.60;90.50;;;;;;4978762;28;20593;-90
2021/03/18 08:25:55;;;;;;;12.43;9.27;;;5.60;89.70;;;;;;4979508;28;20082;-88
2021/03/18 08:28:46;;;;;;;13.43;9.73;;;5.70;88.70;;;;;;4955633;28;20096;-87
2021/03/18 08:31:18;;;;;;;14.68;9.07;;;5.80;89.00;;;;;;5039128;28;20050;-87
2021/03/18 08:33:51;;;;;;;11.65;8.95;;;5.90;89.30;;;;;;4959858;28;20047;-85
2021/03/18 08:36:25;;;;;;;14.85;9.02;;;5.90;89.30;;;;;;4955253;28;20050;-86
2021/03/18 08:38:53;;;;;;;11.27;9.13;;;6.10;88.60;;;;;;4966733;28;20110;-88
2021/03/18 08:41:38;;;;;;;12.52;9.35;;;6.20;88.40;;;;;;4965289;28;20039;-89
2021/03/18 08:44:25;;;;;;;14.43;8.60;;;6.30;86.70;;;;;;4975726;28;20034;-88
2021/03/18 08:47:03;;;;;;;13.93;8.50;;;6.40;86.70;;;;;;5042297;28;20491;-89
2021/03/18 08:49:38;;;;;;;12.40;8.65;;;6.50;87.30;;;;;;4955413;29;20035;-89
2021/03/18 08:52:04;;;;;;;8.68;7.03;;;6.40;86.80;;;;;;4968886;28;20109;-88
2021/03/18 08:54:43;;;;;;;15.68;9.13;;;6.50;86.10;;;;;;5057640;28;20036;-87
2021/03/18 08:57:21;;;;;;;11.07;8.07;;;6.50;86.90;;;;;;5017797;28;20039;-88
2021/03/18 08:59:52;;;;;;;11.13;7.85;;;6.40;85.40;;;;;;4994239;28;20042;-88
2021/03/18 09:02:20;;;;;;;11.18;7.88;;;6.40;86.40;;;;;;5007718;28;20466;-89
2021/03/18 09:04:47;;;;;;;11.63;7.85;;;6.50;88.40;;;;;;5062351;28;20403;-89
2021/03/18 09:07:22;;;;;;;11.48;7.25;;;6.60;85.70;;;;;;4978756;28;20044;-89
2021/03/18 09:10:12;;;;;;;14.73;8.23;;;6.70;85.90;;;;;;5045538;28;20039;-88
2021/03/18 09:12:44;;;;;;;12.35;7.30;;;6.80;86.60;;;;;;4955682;29;20050;-89
2021/03/18 09:15:17;;;;;;;10.68;7.13;;;6.90;84.20;;;;;;4976347;28;20430;-88
2021/03/18 09:17:44;;;;;;;;;;;6.90;84.40;;;;;;4964517;28;20038;-89
2021/03/18 09:20:12;;;;;;;10.07;6.95;;;6.90;84.00;;;;;;5039144;28;19929;-89
2021/03/18 09:22:37;;;;;;;11.55;7.47;;;6.90;83.70;;;;;;4970620;28;20069;-90
2021/03/18 09:25:04;;;;;;;8.90;6.80;;;6.80;83.20;;;;;;4994636;28;20122;-89
2021/03/18 09:27:44;;;;;;;7.90;6.25;;;6.90;83.40;;;;;;5007280;28;20043;-88
2021/03/18 09:30:31;;;;;;;8.25;6.22;;;6.80;83.30;;;;;;4970444;28;20039;-90
2021/03/18 09:32:58;;;;;;;10.25;6.45;;;6.80;83.10;;;;;;4958623;28;20320;-90
2021/03/18 09:35:25;;;;;;;8.10;6.63;;;6.80;83.60;;;;;;4957505;28;20057;-88
2021/03/18 09:37:51;;;;;;;12.13;7.60;;;6.80;83.80;;;;;;5058704;28;20085;-89
2021/03/18 09:40:18;;;;;;;8.95;6.05;;;6.90;84.30;;;;;;4957620;28;20476;-89
2021/03/18 09:42:44;;;;;;;9.88;6.53;;;6.80;83.40;;;;;;4958827;28;20113;-88
2021/03/18 09:45:17;;;;;;;8.23;5.93;;;6.90;84.60;;;;;;4973387;28;20026;-90
2021/03/18 09:47:48;;;;;;;8.63;5.82;;;7.00;82.50;;;;;;4974565;28;20122;-89
2021/03/18 09:50:14;;;;;;;7.78;6.45;;;7.20;83.00;;;;;;4963316;28;20385;-90
2021/03/18 09:52:40;;;;;;;7.20;5.75;;;7.20;83.50;;;;;;4959480;28;20054;-89
2021/03/18 09:55:12;;;;;;;10.55;5.43;;;7.30;82.60;;;;;;4957967;28;20050;-90
2021/03/18 09:57:38;;;;;;;7.22;6.43;;;7.40;81.80;;;;;;4965154;28;20532;-89
2021/03/18 10:00:05;;;;;;;7.68;5.63;;;7.60;82.80;;;;;;4949240;28;20039;-86
2021/03/18 10:02:30;;;;;;;7.20;5.57;;;7.70;80.20;;;;;;4974645;28;20043;-88
2021/03/18 10:04:56;;;;;;;9.82;6.00;;;7.90;79.10;;;;;;4974725;28;20127;-89
2021/03/18 10:07:32;;;;;;;7.10;5.07;;;7.90;79.70;;;;;;4975840;28;20051;-88
2021/03/18 10:09:59;;;;;;;10.25;6.28;;;8.00;78.90;;;;;;4973904;28;20065;-89
2021/03/18 10:12:26;;;;;;;6.93;5.25;;;8.00;80.60;;;;;;4967503;28;20067;-89
2021/03/18 10:15:10;;;;;;;8.93;6.60;;;8.20;78.90;;;;;;5047488;28;20043;-89
2021/03/18 10:17:40;;;;;;;7.13;5.25;;;8.20;78.40;;;;;;4954261;28;20035;-89
2021/03/18 10:20:32;;;;;;;7.20;5.57;;;8.30;78.70;;;;;;4956439;28;20081;-90
2021/03/18 10:23:07;;;;;;;10.13;6.85;;;8.40;78.10;;;;;;4939646;28;20036;-90
2021/03/18 10:25:35;;;;;;;7.95;5.35;;;8.50;76.80;;;;;;4963150;28;20128;-89
2021/03/18 10:28:11;;;;;;;11.40;6.45;;;8.50;77.00;;;;;;4954967;28;20043;-90
2021/03/18 10:30:48;;;;;;;7.63;6.00;;;8.50;78.40;;;;;;4978668;28;20043;-88
2021/03/18 10:33:17;;;;;;;8.38;6.10;;;8.60;77.90;;;;;;4976357;28;20104;-89
2021/03/18 10:35:44;;;;;;;8.35;6.30;;;8.70;76.60;;;;;;4987477;28;20039;-90
2021/03/18 10:38:11;;;;;;;7.28;6.43;;;8.80;76.90;;;;;;5050986;28;20101;-90
2021/03/18 10:40:46;;;;;;;10.50;6.20;;;8.90;77.80;;;;;;4972516;28;20393;-90
2021/03/18 10:43:26;;;;;;;7.30;5.65;;;9.10;76.10;;;;;;4955035;28;20404;-90
2021/03/18 10:46:02;;;;;;;7.38;5.55;;;9.20;75.70;;;;;;5006123;28;20430;-90
2021/03/18 10:48:30;;;;;;;7.57;5.28;;;9.30;77.60;;;;;;4980668;28;20463;-91
2021/03/18 10:51:05;;;;;;;7.95;5.50;;;9.40;75.40;;;;;;4984328;28;20029;-91
2021/03/18 10:53:34;;;;;;;5.30;4.57;;;9.60;74.70;;;;;;5017222;28;20054;-90
2021/03/18 10:56:01;;;;;;;8.07;5.10;;;9.60;73.00;;;;;;5079975;28;20077;-91
2021/03/18 10:58:27;;;;;;;7.35;4.68;;;9.60;72.90;;;;;;4965396;28;20131;-90
2021/03/18 11:00:58;;;;;;;7.07;5.20;;;9.70;71.80;;;;;;4978048;28;20596;-89
2021/03/18 11:03:36;;;;;;;7.50;5.18;;;9.70;73.60;;;;;;4960731;28;20042;-90
2021/03/18 11:06:13;;;;;;;7.20;4.90;;;9.70;72.10;;;;;;4957482;28;20069;-89
2021/03/18 11:08:41;;;;;;;6.43;5.50;;;9.60;73.70;;;;;;4976282;28;20094;-90
2021/03/18 11:11:13;;;;;;;6.10;4.82;;;9.80;72.60;;;;;;5054345;28;20057;-91
2021/03/18 11:13:42;;;;;;;11.93;6.07;;;9.90;72.70;;;;;;4942491;29;20039;-90
2021/03/18 11:16:08;;;;;;;7.63;5.90;;;10.10;72.30;;;;;;4955069;28;20106;-92
2021/03/18 11:18:43;;;;;;;8.40;5.05;;;10.30;70.70;;;;;;4971234;28;20063;-90
2021/03/18 11:21:17;;;;;;;8.52;4.15;;;10.60;68.30;;;;;;4954723;28;20038;-91
2021/03/18 11:23:43;;;;;;;5.85;4.72;;;10.80;68.70;;;;;;5061782;28;20034;-91
2021/03/18 11:26:08;;;;;;;6.57;4.50;;;10.90;65.10;;;;;;4959866;28;20066;-91
2021/03/18 11:28:35;;;;;;;7.65;5.32;;;10.90;65.30;;;;;;4951544;28;20050;-89
2021/03/18 11:31:11;;;;;;;6.65;4.82;;;10.90;65.50;;;;;;4993240;28;20366;-88
2021/03/18 11:33:37;;;;;;;6.22;5.32;;;10.70;66.90;;;;;;4985898;28;20053;-89
2021/03/18 11:36:04;;;;;;;7.75;5.55;;;10.50;66.70;;;;;;4945418;28;20125;-89
2021/03/18 11:38:30;;;;;;;9.25;5.65;;;10.30;68.30;;;;;;4959571;28;20143;-89
2021/03/18 11:40:57;;;;;;;7.57;5.80;;;10.10;67.80;;;;;;4974680;28;20067;-88
2021/03/18 11:43:24;;;;;;;6.40;4.45;;;9.90;68.30;;;;;;4974159;28;20152;-89
2021/03/18 11:45:49;;;;;;;6.78;5.30;;;9.70;68.90;;;;;;4964676;28;20100;-87
2021/03/18 11:48:15;;;;;;;9.10;5.85;;;9.60;69.10;;;;;;4958354;28;20050;-90
2021/03/18 11:50:41;;;;;;;8.57;4.80;;;9.40;70.60;;;;;;4946271;29;20135;-91
2021/03/18 11:53:08;;;;;;;6.13;4.72;;;9.30;70.40;;;;;;4976105;28;20042;-90
2021/03/18 11:55:35;;;;;;;6.63;4.70;;;9.20;71.00;;;;;;4978545;28;20058;-89
2021/03/18 11:58:02;;;;;;;6.60;4.60;;;9.10;71.40;;;;;;4976456;28;20554;-90
2021/03/18 12:00:30;;;;;;;7.00;5.55;;;9.20;72.70;;;;;;4958935;29;20046;-92
2021/03/18 12:02:58;;;;;;;6.47;4.38;;;9.30;71.80;;;;;;4969018;28;20042;-91
2021/03/18 12:05:25;;;;;;;4.68;3.20;;;9.50;68.80;;;;;;4991268;28;20404;-92
2021/03/18 12:07:51;;;;;;;6.57;4.18;;;9.70;67.90;;;;;;4961922;28;20043;-94
2021/03/18 12:10:17;;;;;;;5.75;4.22;;;10.00;68.80;;;;;;4980569;28;20061;-93
2021/03/18 12:12:45;;;;;;;5.30;3.67;;;10.30;67.10;;;;;;4981433;28;20038;-93
2021/03/18 12:15:12;;;;;;;9.02;3.92;;;10.60;66.00;;;;;;4981174;28;20042;-93
2021/03/18 12:17:38;;;;;;;7.13;3.90;;;10.90;66.00;;;;;;4981575;28;20064;-93
2021/03/18 12:20:06;;;;;;;4.03;3.60;;;11.20;65.20;;;;;;4981214;28;20141;-94
2021/03/18 12:22:32;;;;;;;6.13;4.13;;;11.40;62.90;;;;;;4981123;28;20470;-93
2021/03/18 12:24:58;;;;;;;4.95;3.75;;;11.50;61.60;;;;;;4981308;28;20066;-93
2021/03/18 12:27:25;;;;;;;3.85;3.13;;;11.50;62.90;;;;;;4980762;28;20034;-93
2021/03/18 12:29:50;;;;;;;3.88;3.08;;;11.40;61.10;;;;;;5082088;28;20049;-92
2021/03/18 12:32:16;;;;;;;4.88;3.90;;;11.20;60.90;;;;;;5082133;28;20038;-92
2021/03/18 12:34:42;;;;;;;4.25;3.58;;;11.00;60.90;;;;;;5082201;28;20118;-92
2021/03/18 12:37:07;;;;;;;5.28;4.03;;;10.80;61.00;;;;;;4980656;28;20635;-92
2021/03/18 12:39:33;;;;;;;5.05;4.10;;;10.60;62.30;;;;;;4980323;28;20072;-92
2021/03/18 12:41:58;;;;;;;12.15;4.95;;;10.40;63.40;;;;;;5081777;28;20261;-92
2021/03/18 12:44:24;;;;;;;5.35;3.97;;;10.10;64.80;;;;;;4979746;28;20049;-92
2021/03/18 12:46:50;;;;;;;7.93;4.63;;;10.00;66.30;;;;;;5081487;28;20072;-91
2021/03/18 12:49:16;;;;;;;7.65;4.13;;;9.60;68.40;;;;;;4976350;28;20070;-91
2021/03/18 12:51:42;;;;;;;5.95;4.05;;;9.30;68.90;;;;;;4960544;28;20049;-91
2021/03/18 12:54:08;;;;;;;5.28;3.05;;;9.10;69.70;;;;;;4960952;28;20034;-92
2021/03/18 12:56:34;;;;;;;3.00;2.60;;;8.80;71.60;;;;;;4960730;28;20050;-91
2021/03/18 12:59:00;;;;;;;3.95;2.38;;;8.70;74.60;;;;;;4961032;28;20068;-92